createdAt,value
2019-04-30T00:00:15.776Z,10.78
2019-04-30T00:02:55.159Z,10.78
2019-04-30T00:05:25.419Z,10.95
2019-04-30T00:07:57.413Z,11.04
2019-04-30T00:10:29.486Z,10.92
2019-04-30T00:12:56.337Z,10.73
2019-04-30T00:15:25.975Z,10.73
2019-04-30T00:17:58.701Z,10.95
2019-04-30T00:20:29.983Z,10.95
2019-04-30T00:22:56.536Z,10.86
2019-04-30T00:25:28.560Z,10.71
2019-04-30T00:28:00.308Z,10.90
2019-04-30T00:30:27.002Z,10.90
2019-04-30T00:32:56.092Z,10.76
2019-04-30T00:35:25.453Z,10.76
2019-04-30T00:37:57.579Z,10.92
2019-04-30T00:40:26.644Z,10.92
2019-04-30T00:43:00.222Z,10.73
2019-04-30T00:45:26.910Z,10.90
2019-04-30T00:47:56.049Z,10.90
2019-04-30T00:50:25.128Z,10.81
2019-04-30T00:52:57.847Z,10.85
2019-04-30T00:55:26.569Z,10.85
2019-04-30T00:57:55.870Z,10.88
2019-04-30T01:00:29.441Z,10.79
2019-04-30T01:03:05.883Z,10.79
2019-04-30T01:05:35.356Z,10.79
2019-04-30T01:08:06.916Z,10.80
2019-04-30T01:10:35.813Z,10.73
2019-04-30T01:13:08.152Z,10.69
2019-04-30T01:15:35.852Z,10.69
2019-04-30T01:18:05.020Z,10.65
2019-04-30T01:20:34.195Z,10.65
2019-04-30T01:23:09.842Z,10.64
2019-04-30T01:25:34.351Z,10.64
2019-04-30T01:28:03.699Z,10.71
2019-04-30T01:30:32.861Z,10.71
2019-04-30T01:33:01.979Z,10.64
2019-04-30T01:35:32.694Z,10.67
2019-04-30T01:38:04.092Z,10.67
2019-04-30T01:40:33.835Z,10.59
2019-04-30T01:43:02.868Z,10.59
2019-04-30T01:45:31.878Z,10.61
2019-04-30T01:48:08.608Z,10.48
2019-04-30T01:50:33.762Z,10.45
2019-04-30T01:53:04.760Z,10.45
2019-04-30T01:55:55.222Z,10.54
2019-04-30T01:58:42.101Z,10.50
2019-04-30T02:01:16.502Z,10.54
2019-04-30T02:03:45.500Z,10.58
2019-04-30T02:06:14.671Z,10.51
2019-04-30T02:08:43.835Z,10.35
2019-04-30T02:11:13.038Z,10.44
2019-04-30T02:13:42.113Z,10.36
2019-04-30T02:16:11.236Z,10.38
2019-04-30T02:18:40.282Z,10.46
2019-04-30T02:21:11.425Z,10.38
2019-04-30T02:23:40.023Z,10.42
2019-04-30T02:26:09.046Z,10.50
2019-04-30T02:28:39.342Z,10.43
2019-04-30T02:31:09.305Z,10.35
2019-04-30T02:33:40.530Z,10.34
2019-04-30T02:36:43.780Z,10.19
2019-04-30T02:39:13.407Z,10.19
2019-04-30T02:41:44.199Z,10.32
2019-04-30T02:44:14.734Z,10.11
2019-04-30T02:46:46.220Z,10.37
2019-04-30T02:49:20.182Z,10.37
2019-04-30T02:51:50.136Z,10.29
2019-04-30T02:54:25.476Z,10.23
2019-04-30T02:57:13.522Z,10.21
2019-04-30T03:00:00.857Z,10.16
2019-04-30T03:02:31.458Z,10.16
2019-04-30T03:05:00.535Z,10.12
2019-04-30T03:07:29.780Z,10.05
2019-04-30T03:09:59.730Z,10.16
2019-04-30T03:12:33.035Z,10.16
2019-04-30T03:15:00.547Z,9.93
2019-04-30T03:17:50.366Z,10.09
2019-04-30T03:20:55.377Z,9.91
2019-04-30T03:23:24.386Z,9.91
2019-04-30T03:25:53.407Z,9.90
2019-04-30T03:28:22.494Z,9.91
2019-04-30T03:30:57.213Z,10.01
2019-04-30T03:33:23.273Z,9.96
2019-04-30T03:35:54.123Z,9.99
2019-04-30T03:38:23.283Z,10.05
2019-04-30T03:40:52.408Z,9.97
2019-04-30T03:43:21.495Z,10.03
2019-04-30T03:45:50.485Z,10.03
2019-04-30T03:48:20.182Z,10.05
2019-04-30T03:50:56.335Z,9.95
2019-04-30T03:53:20.353Z,9.95
2019-04-30T03:55:50.630Z,9.85
2019-04-30T03:58:21.280Z,10.02
2019-04-30T04:01:09.937Z,10.02
2019-04-30T04:04:00.191Z,9.92
2019-04-30T04:06:32.585Z,9.99
2019-04-30T04:09:14.618Z,9.98
2019-04-30T04:11:45.146Z,10.04
2019-04-30T04:14:14.156Z,10.04
2019-04-30T04:16:43.325Z,10.07
2019-04-30T04:19:12.341Z,10.01
2019-04-30T04:21:42.110Z,9.84
2019-04-30T04:24:11.411Z,10.00
2019-04-30T04:26:43.541Z,9.90
2019-04-30T04:29:12.507Z,9.88
2019-04-30T04:31:41.679Z,9.88
2019-04-30T04:34:10.714Z,9.88
2019-04-30T04:36:43.118Z,9.78
2019-04-30T04:39:10.656Z,9.78
2019-04-30T04:41:40.032Z,9.96
2019-04-30T04:44:12.618Z,10.01
2019-04-30T04:46:40.249Z,9.99
2019-04-30T04:49:09.335Z,10.09
2019-04-30T04:51:42.040Z,10.04
2019-04-30T04:54:10.417Z,9.91
2019-04-30T04:56:40.060Z,9.97
2019-04-30T04:59:10.277Z,9.94
2019-04-30T05:01:39.588Z,9.91
2019-04-30T05:04:11.483Z,9.97
2019-04-30T05:06:39.593Z,9.97
2019-04-30T05:09:09.719Z,10.18
2019-04-30T05:11:39.551Z,10.19
2019-04-30T05:14:11.147Z,10.20
2019-04-30T05:16:41.439Z,10.19
2019-04-30T05:19:10.516Z,10.05
2019-04-30T05:21:44.153Z,9.98
2019-04-30T05:24:10.276Z,10.02
2019-04-30T05:26:39.267Z,9.99
2019-04-30T05:29:09.550Z,10.03
2019-04-30T05:31:38.760Z,10.03
2019-04-30T05:34:10.123Z,10.07
2019-04-30T05:36:39.129Z,10.03
2019-04-30T05:39:08.775Z,10.06
2019-04-30T05:41:38.634Z,10.02
2019-04-30T05:44:09.167Z,10.13
2019-04-30T05:46:39.732Z,10.28
2019-04-30T05:49:11.072Z,10.31
2019-04-30T05:51:52.389Z,10.34
2019-04-30T05:54:12.207Z,10.42
2019-04-30T05:56:42.705Z,10.37
2019-04-30T05:59:12.059Z,10.33
2019-04-30T06:01:47.876Z,10.34
2019-04-30T06:04:13.690Z,10.28
2019-04-30T06:06:42.756Z,10.44
2019-04-30T06:09:30.720Z,10.34
2019-04-30T06:12:11.426Z,10.34
2019-04-30T06:14:51.899Z,10.35
2019-04-30T06:17:21.471Z,10.51
2019-04-30T06:19:51.435Z,10.28
2019-04-30T06:22:21.327Z,10.25
2019-04-30T06:24:50.505Z,10.25
2019-04-30T06:27:19.785Z,10.13
2019-04-30T06:29:49.472Z,10.33
2019-04-30T06:32:19.012Z,10.27
2019-04-30T06:34:49.864Z,10.27
2019-04-30T06:37:19.520Z,10.45
2019-04-30T06:39:49.994Z,10.45
2019-04-30T06:42:19.633Z,10.29
2019-04-30T06:44:49.576Z,10.29
2019-04-30T06:47:32.124Z,10.29
2019-04-30T06:49:50.077Z,10.32
2019-04-30T06:52:22.957Z,10.31
2019-04-30T06:54:50.052Z,10.29
2019-04-30T06:57:19.861Z,10.08
2019-04-30T06:59:51.260Z,10.10
2019-04-30T07:02:20.146Z,10.26
2019-04-30T07:04:51.202Z,10.26
2019-04-30T07:07:23.174Z,10.14
2019-04-30T07:10:00.918Z,10.14
2019-04-30T07:12:38.982Z,10.25
2019-04-30T07:15:08.762Z,10.22
2019-04-30T07:17:40.736Z,10.35
2019-04-30T07:20:10.468Z,10.36
2019-04-30T07:22:45.182Z,10.49
2019-04-30T07:25:10.450Z,10.26
2019-04-30T07:27:40.156Z,10.49
2019-04-30T07:30:10.238Z,10.53
2019-04-30T07:32:39.267Z,10.49
2019-04-30T07:35:09.579Z,10.54
2019-04-30T07:37:39.311Z,10.64
2019-04-30T07:40:09.281Z,10.62
2019-04-30T07:42:44.709Z,10.57
2019-04-30T07:45:10.343Z,10.72
2019-04-30T07:47:39.773Z,10.68
2019-04-30T07:50:10.660Z,10.66
2019-04-30T07:52:57.719Z,10.66
2019-04-30T07:55:10.976Z,10.71
2019-04-30T07:57:40.492Z,10.72
2019-04-30T08:00:10.286Z,10.83
2019-04-30T08:02:44.459Z,10.60
2019-04-30T08:05:24.074Z,10.69
2019-04-30T08:07:53.107Z,10.75
2019-04-30T08:10:22.264Z,10.75
2019-04-30T08:12:51.689Z,10.63
2019-04-30T08:15:23.215Z,10.63
2019-04-30T08:18:02.771Z,10.73
2019-04-30T08:20:22.971Z,10.60
2019-04-30T08:22:52.065Z,10.72
2019-04-30T08:25:22.063Z,10.70
2019-04-30T08:27:51.211Z,10.70
2019-04-30T08:30:26.065Z,10.92
2019-04-30T08:32:51.104Z,10.81
2019-04-30T08:35:20.263Z,10.81
2019-04-30T08:37:49.825Z,11.09
2019-04-30T08:40:19.283Z,11.09
2019-04-30T08:42:49.491Z,11.12
2019-04-30T08:45:19.750Z,11.51
2019-04-30T08:47:49.431Z,11.30
2019-04-30T08:50:20.029Z,11.44
2019-04-30T08:52:50.099Z,11.50
2019-04-30T08:55:22.519Z,11.57
2019-04-30T08:57:51.731Z,11.55
2019-04-30T09:00:21.018Z,11.37
2019-04-30T09:02:50.000Z,11.55
2019-04-30T09:05:24.498Z,11.41
2019-04-30T09:07:53.490Z,11.41
2019-04-30T09:10:22.682Z,11.42
2019-04-30T09:12:52.018Z,11.50
2019-04-30T09:15:40.418Z,11.36
2019-04-30T09:18:12.379Z,11.64
2019-04-30T09:20:40.940Z,11.55
2019-04-30T09:23:11.290Z,11.47
2019-04-30T09:25:42.720Z,11.57
2019-04-30T09:28:11.888Z,11.47
2019-04-30T09:30:40.899Z,11.47
2019-04-30T09:33:11.155Z,11.60
2019-04-30T09:35:40.460Z,11.64
2019-04-30T09:38:10.852Z,11.64
2019-04-30T09:40:41.701Z,11.49
2019-04-30T09:43:10.684Z,11.49
2019-04-30T09:45:39.702Z,11.49
2019-04-30T09:48:09.372Z,11.61
2019-04-30T09:50:39.364Z,11.74
2019-04-30T09:53:10.054Z,11.55
2019-04-30T09:55:40.594Z,11.64
2019-04-30T09:58:17.184Z,11.69
2019-04-30T10:00:40.536Z,11.69
2019-04-30T10:03:10.602Z,11.52
2019-04-30T10:05:41.543Z,11.64
2019-04-30T10:08:10.705Z,11.64
2019-04-30T10:10:49.148Z,11.48
2019-04-30T10:13:18.166Z,11.55
2019-04-30T10:15:59.553Z,11.57
2019-04-30T10:18:28.641Z,11.67
2019-04-30T10:20:58.909Z,11.67
2019-04-30T10:23:30.194Z,11.53
2019-04-30T10:26:00.554Z,11.41
2019-04-30T10:28:30.242Z,11.32
2019-04-30T10:30:59.262Z,11.53
2019-04-30T10:33:28.750Z,11.53
2019-04-30T10:35:59.467Z,12.13
2019-04-30T10:38:29.377Z,12.01
2019-04-30T10:40:59.569Z,11.80
2019-04-30T10:43:29.406Z,11.91
2019-04-30T10:46:02.142Z,11.91
2019-04-30T10:48:31.314Z,11.69
2019-04-30T10:51:00.438Z,11.69
2019-04-30T10:53:29.708Z,11.80
2019-04-30T10:55:59.526Z,11.80
2019-04-30T10:58:28.639Z,11.98
2019-04-30T11:00:59.557Z,11.91
2019-04-30T11:03:29.155Z,11.91
2019-04-30T11:05:58.597Z,11.63
2019-04-30T11:08:27.721Z,11.63
2019-04-30T11:10:56.830Z,12.03
2019-04-30T11:13:25.843Z,11.83
2019-04-30T11:15:54.890Z,11.87
2019-04-30T11:18:24.127Z,11.80
2019-04-30T11:20:53.729Z,11.80
2019-04-30T11:23:23.085Z,12.06
2019-04-30T11:25:52.822Z,12.11
2019-04-30T11:28:22.702Z,11.99
2019-04-30T11:30:55.068Z,11.81
2019-04-30T11:33:24.535Z,11.81
2019-04-30T11:36:02.374Z,12.23
2019-04-30T11:38:25.754Z,12.24
2019-04-30T11:40:54.744Z,12.24
2019-04-30T11:43:23.736Z,12.12
2019-04-30T11:46:33.241Z,12.12
2019-04-30T11:49:02.339Z,12.28
2019-04-30T11:51:31.455Z,12.36
2019-04-30T11:54:00.479Z,12.15
2019-04-30T11:56:29.462Z,12.15
2019-04-30T11:58:58.952Z,12.42
2019-04-30T12:01:29.927Z,12.40
2019-04-30T12:03:59.845Z,12.31
2019-04-30T12:06:30.473Z,12.36
2019-04-30T12:09:14.686Z,12.22
2019-04-30T12:11:43.959Z,12.33
2019-04-30T12:14:16.004Z,12.31
2019-04-30T12:16:45.014Z,12.25
2019-04-30T12:19:14.092Z,12.33
2019-04-30T12:21:43.174Z,12.30
2019-04-30T12:24:12.169Z,12.30
2019-04-30T12:26:41.235Z,12.28
2019-04-30T12:29:11.263Z,12.35
2019-04-30T12:31:40.431Z,12.34
2019-04-30T12:34:09.603Z,12.68
2019-04-30T12:36:38.845Z,12.59
2019-04-30T12:39:08.181Z,12.84
2019-04-30T12:41:39.004Z,12.92
2019-04-30T12:44:08.034Z,12.85
2019-04-30T12:46:38.727Z,12.76
2019-04-30T12:49:13.836Z,12.58
2019-04-30T12:51:53.924Z,12.61
2019-04-30T12:54:48.239Z,12.61
2019-04-30T12:57:29.467Z,12.67
2019-04-30T13:00:00.461Z,12.60
2019-04-30T13:02:29.807Z,12.60
2019-04-30T13:05:00.536Z,12.59
2019-04-30T13:07:30.601Z,12.55
2019-04-30T13:10:01.431Z,12.55
2019-04-30T13:12:32.516Z,12.61
2019-04-30T13:15:02.003Z,12.89
2019-04-30T13:17:30.998Z,12.96
2019-04-30T13:20:00.014Z,12.82
2019-04-30T13:22:29.085Z,12.67
2019-04-30T13:24:59.586Z,12.91
2019-04-30T13:27:30.671Z,13.10
2019-04-30T13:30:05.144Z,13.01
2019-04-30T13:32:41.929Z,12.74
2019-04-30T13:35:11.369Z,12.71
2019-04-30T13:37:49.279Z,12.64
2019-04-30T13:40:31.353Z,12.38
2019-04-30T13:43:00.713Z,12.38
2019-04-30T13:45:29.869Z,12.71
2019-04-30T13:47:59.048Z,12.69
2019-04-30T13:50:29.207Z,12.65
2019-04-30T13:52:58.871Z,12.65
2019-04-30T13:55:30.476Z,12.66
2019-04-30T13:57:59.565Z,12.58
2019-04-30T14:00:29.815Z,12.94
2019-04-30T14:03:05.993Z,12.70
2019-04-30T14:05:35.175Z,12.43
2019-04-30T14:08:29.011Z,12.77
2019-04-30T14:10:59.162Z,12.61
2019-04-30T14:13:28.326Z,12.61
2019-04-30T14:15:57.479Z,13.02
2019-04-30T14:18:30.819Z,12.77
2019-04-30T14:21:00.806Z,12.74
2019-04-30T14:23:28.671Z,12.65
2019-04-30T14:26:00.897Z,12.74
2019-04-30T14:28:29.232Z,12.80
2019-04-30T14:31:00.579Z,12.94
2019-04-30T14:33:29.571Z,13.11
2019-04-30T14:36:00.617Z,13.11
2019-04-30T14:38:29.466Z,12.97
2019-04-30T14:41:01.946Z,12.86
2019-04-30T14:43:42.641Z,12.52
2019-04-30T14:46:30.932Z,12.40
2019-04-30T14:49:31.277Z,12.64
2019-04-30T14:52:01.068Z,12.47
2019-04-30T14:54:50.469Z,12.33
2019-04-30T14:57:36.726Z,12.57
2019-04-30T15:00:40.629Z,12.57
2019-04-30T15:03:12.031Z,12.64
2019-04-30T15:05:48.354Z,12.61
2019-04-30T15:08:11.930Z,12.65
2019-04-30T15:10:41.034Z,12.45
2019-04-30T15:13:10.201Z,12.50
2019-04-30T15:15:39.314Z,12.34
2019-04-30T15:18:09.260Z,12.34
2019-04-30T15:20:39.783Z,12.18
2019-04-30T15:23:26.699Z,12.15
2019-04-30T15:25:55.818Z,12.15
2019-04-30T15:28:32.352Z,12.16
2019-04-30T15:30:55.711Z,12.23
2019-04-30T15:33:42.207Z,12.27
2019-04-30T15:36:12.550Z,12.27
2019-04-30T15:38:59.442Z,12.43
2019-04-30T15:41:28.621Z,12.12
2019-04-30T15:43:57.644Z,12.21
2019-04-30T15:46:26.792Z,12.21
2019-04-30T15:48:55.788Z,12.22
2019-04-30T15:51:24.905Z,12.21
2019-04-30T15:53:53.922Z,12.10
2019-04-30T15:56:34.297Z,12.10
2019-04-30T15:59:18.982Z,12.03
2019-04-30T16:01:51.159Z,12.07
2019-04-30T16:04:28.547Z,12.07
2019-04-30T16:06:58.463Z,12.02
2019-04-30T16:09:33.772Z,11.88
2019-04-30T16:12:16.074Z,11.88
2019-04-30T16:14:46.476Z,12.13
2019-04-30T16:17:20.643Z,12.03
2019-04-30T16:19:49.846Z,12.18
2019-04-30T16:22:20.776Z,12.28
2019-04-30T16:24:51.093Z,11.92
2019-04-30T16:27:20.221Z,12.08
2019-04-30T16:29:49.969Z,11.95
2019-04-30T16:32:21.837Z,12.01
2019-04-30T16:34:50.876Z,11.90
2019-04-30T16:37:20.241Z,11.90
2019-04-30T16:39:49.415Z,11.99
2019-04-30T16:42:19.019Z,11.76
2019-04-30T16:44:48.258Z,11.86
2019-04-30T16:47:19.337Z,11.86
2019-04-30T16:49:49.266Z,12.08
2019-04-30T16:52:19.026Z,11.85
2019-04-30T16:54:49.722Z,11.92
2019-04-30T16:57:20.041Z,11.85
2019-04-30T16:59:49.964Z,11.75
2019-04-30T17:02:21.630Z,11.76
2019-04-30T17:05:04.526Z,11.73
2019-04-30T17:08:01.796Z,11.74
2019-04-30T17:10:40.501Z,11.66
2019-04-30T17:13:29.009Z,11.67
2019-04-30T17:16:03.908Z,11.67
2019-04-30T17:18:32.908Z,11.54
2019-04-30T17:21:01.953Z,11.60
2019-04-30T17:23:31.071Z,11.57
2019-04-30T17:26:01.705Z,11.57
2019-04-30T17:28:30.698Z,11.57
2019-04-30T17:30:59.754Z,11.43
2019-04-30T17:33:28.768Z,11.43
2019-04-30T17:35:57.834Z,11.38
2019-04-30T17:38:26.865Z,11.36
2019-04-30T17:40:55.975Z,11.44
2019-04-30T17:43:25.298Z,11.44
2019-04-30T17:45:54.321Z,11.53
2019-04-30T17:48:24.673Z,11.29
2019-04-30T17:50:54.392Z,11.29
2019-04-30T17:53:23.525Z,11.50
2019-04-30T17:55:52.636Z,11.37
2019-04-30T17:58:21.650Z,11.31
2019-04-30T18:00:54.347Z,11.16
2019-04-30T18:03:23.391Z,11.17
2019-04-30T18:05:52.540Z,11.34
2019-04-30T18:08:21.811Z,11.26
2019-04-30T18:10:52.222Z,11.29
2019-04-30T18:13:21.313Z,11.28
2019-04-30T18:15:50.409Z,11.37
2019-04-30T18:18:31.213Z,11.29
2019-04-30T18:21:12.969Z,11.36
2019-04-30T18:23:55.337Z,11.11
2019-04-30T18:26:24.454Z,11.12
2019-04-30T18:28:53.511Z,11.20
2019-04-30T18:31:24.015Z,11.13
2019-04-30T18:33:53.075Z,11.14
2019-04-30T18:36:22.127Z,11.10
2019-04-30T18:38:51.128Z,10.99
2019-04-30T18:41:20.261Z,10.95
2019-04-30T18:43:49.335Z,11.11
2019-04-30T18:46:19.161Z,11.11
2019-04-30T18:48:49.417Z,11.09
2019-04-30T18:51:32.862Z,10.90
2019-04-30T18:53:49.930Z,10.90
2019-04-30T18:56:19.205Z,11.11
2019-04-30T18:58:48.699Z,11.11
2019-04-30T19:01:17.915Z,10.88
2019-04-30T19:03:46.936Z,10.90
2019-04-30T19:06:23.719Z,10.69
2019-04-30T19:09:20.730Z,10.69
2019-04-30T19:11:59.668Z,10.80
2019-04-30T19:14:49.213Z,10.83
2019-04-30T19:17:32.123Z,10.66
2019-04-30T19:20:19.480Z,10.66
2019-04-30T19:22:48.580Z,10.81
2019-04-30T19:25:19.075Z,10.86
2019-04-30T19:27:48.239Z,10.91
2019-04-30T19:30:19.365Z,10.84
2019-04-30T19:32:49.126Z,10.70
2019-04-30T19:35:18.855Z,10.76
2019-04-30T19:37:48.711Z,10.75
2019-04-30T19:40:19.025Z,10.68
2019-04-30T19:42:50.319Z,10.68
2019-04-30T19:45:20.277Z,10.64
2019-04-30T19:47:49.375Z,10.72
2019-04-30T19:50:19.320Z,10.68
2019-04-30T19:52:48.484Z,10.77
2019-04-30T19:55:20.396Z,10.67
2019-04-30T19:57:48.407Z,10.67
2019-04-30T20:00:19.809Z,10.56
2019-04-30T20:02:48.834Z,10.54
2019-04-30T20:05:19.528Z,10.45
2019-04-30T20:07:49.362Z,10.48
2019-04-30T20:10:19.570Z,10.45
2019-04-30T20:12:49.757Z,10.34
2019-04-30T20:15:22.120Z,10.27
2019-04-30T20:17:49.967Z,10.08
2019-04-30T20:20:19.099Z,10.15
2019-04-30T20:22:48.119Z,9.96
2019-04-30T20:25:18.977Z,9.96
2019-04-30T20:27:49.574Z,10.11
2019-04-30T20:30:19.576Z,10.06
2019-04-30T20:32:49.079Z,10.06
2019-04-30T20:35:19.449Z,10.06
2019-04-30T20:38:06.286Z,10.06
2019-04-30T20:40:43.261Z,9.94
2019-04-30T20:43:08.552Z,9.96
2019-04-30T20:45:40.129Z,9.86
2019-04-30T20:48:09.198Z,9.92
2019-04-30T20:50:38.341Z,9.85
2019-04-30T20:53:09.445Z,9.85
2019-04-30T20:55:40.788Z,9.88
2019-04-30T20:58:09.628Z,9.84
2019-04-30T21:00:39.987Z,9.71
2019-04-30T21:03:09.678Z,9.71
2019-04-30T21:05:39.459Z,9.54
2019-04-30T21:08:08.647Z,9.53
2019-04-30T21:10:39.572Z,9.53
2019-04-30T21:13:10.958Z,9.38
2019-04-30T21:15:39.585Z,9.38
2019-04-30T21:18:09.510Z,9.52
2019-04-30T21:20:38.859Z,9.52
2019-04-30T21:23:09.416Z,9.39
2019-04-30T21:25:38.784Z,9.39
2019-04-30T21:28:09.751Z,9.40
2019-04-30T21:30:38.861Z,9.26
2019-04-30T21:33:22.855Z,9.24
2019-04-30T21:36:14.007Z,9.24
2019-04-30T21:38:42.997Z,9.24
2019-04-30T21:41:11.976Z,9.23
2019-04-30T21:43:40.954Z,9.12
2019-04-30T21:46:09.909Z,9.12
2019-04-30T21:48:39.025Z,8.96
2019-04-30T21:51:09.467Z,8.79
2019-04-30T21:53:39.571Z,8.67
2019-04-30T21:56:08.836Z,8.63
2019-04-30T21:58:39.272Z,8.58
2019-04-30T22:01:16.098Z,8.40
2019-04-30T22:03:45.355Z,8.36
2019-04-30T22:06:14.765Z,8.31
2019-04-30T22:08:43.883Z,8.31
2019-04-30T22:11:12.981Z,8.15
2019-04-30T22:13:43.255Z,8.07
2019-04-30T22:16:12.569Z,8.04
2019-04-30T22:18:41.635Z,8.01
2019-04-30T22:21:10.739Z,8.01
2019-04-30T22:23:39.743Z,7.90
2019-04-30T22:26:08.726Z,7.79
2019-04-30T22:28:39.121Z,7.70
2019-04-30T22:31:08.687Z,7.65
2019-04-30T22:33:39.227Z,7.56
2019-04-30T22:36:39.240Z,7.56
2019-04-30T22:39:33.312Z,7.59
2019-04-30T22:42:39.972Z,7.53
2019-04-30T22:45:17.566Z,7.53
2019-04-30T22:47:46.609Z,7.46
2019-04-30T22:50:15.943Z,7.36
2019-04-30T22:52:44.914Z,7.28
2019-04-30T22:55:14.027Z,7.21
2019-04-30T22:57:43.166Z,7.12
2019-04-30T23:00:17.064Z,7.06
2019-04-30T23:03:04.604Z,7.02
2019-04-30T23:05:33.677Z,7.03
2019-04-30T23:08:04.187Z,7.03
2019-04-30T23:10:33.280Z,6.99
2019-04-30T23:13:02.353Z,6.99
2019-04-30T23:15:31.459Z,6.85
2019-04-30T23:18:00.611Z,6.85
2019-04-30T23:20:29.742Z,6.90
2019-04-30T23:22:58.722Z,6.71
2019-04-30T23:25:27.699Z,6.75
2019-04-30T23:27:56.743Z,6.75
2019-04-30T23:30:25.868Z,6.76
2019-04-30T23:32:54.998Z,6.75
2019-04-30T23:35:24.016Z,6.75
2019-04-30T23:37:52.975Z,6.71
2019-04-30T23:40:30.179Z,6.71
2019-04-30T23:42:59.293Z,6.68
2019-04-30T23:45:28.532Z,6.63
2019-04-30T23:47:57.639Z,6.68
2019-04-30T23:50:26.694Z,6.64
2019-04-30T23:52:55.820Z,6.64
2019-04-30T23:55:24.852Z,6.57
2019-04-30T23:57:53.918Z,6.57
